createdAt,value
2023-03-15T00:01:24.235Z,12.70
2023-03-15T00:03:55.049Z,12.67
2023-03-15T00:06:23.256Z,12.20
2023-03-15T00:08:52.118Z,20.80
2023-03-15T00:11:20.730Z,14.67
2023-03-15T00:13:48.768Z,12.00
2023-03-15T00:16:18.237Z,13.43
2023-03-15T00:18:47.271Z,11.33
2023-03-15T00:21:16.891Z,10.23
2023-03-15T00:23:44.961Z,11.23
2023-03-15T00:26:13.096Z,9.03
2023-03-15T00:28:41.392Z,12.13
2023-03-15T00:31:14.537Z,11.37
2023-03-15T00:33:42.831Z,11.07
2023-03-15T00:36:11.717Z,9.77
2023-03-15T00:38:44.036Z,21.93
2023-03-15T00:41:14.050Z,14.77
2023-03-15T00:43:42.712Z,16.40
2023-03-15T00:46:11.968Z,12.30
2023-03-15T00:48:40.222Z,9.57
2023-03-15T00:51:10.895Z,14.50
2023-03-15T00:53:41.651Z,18.70
2023-03-15T00:56:12.206Z,16.20
2023-03-15T00:58:40.573Z,22.83
2023-03-15T01:01:09.401Z,12.53
2023-03-15T01:03:39.345Z,27.27
2023-03-15T01:06:08.275Z,44.57
2023-03-15T01:08:36.596Z,51.40
2023-03-15T01:11:08.740Z,33.30
2023-03-15T01:13:37.864Z,11.97
2023-03-15T01:16:06.755Z,12.97
2023-03-15T01:18:34.798Z,13.13
2023-03-15T01:21:03.754Z,14.57
2023-03-15T01:23:32.072Z,11.03
2023-03-15T01:26:01.309Z,13.37
2023-03-15T01:28:30.981Z,14.47
2023-03-15T01:31:00.079Z,13.77
2023-03-15T01:33:28.622Z,12.53
2023-03-15T01:36:01.243Z,12.63
2023-03-15T01:38:30.915Z,11.83
2023-03-15T01:40:59.571Z,12.33
2023-03-15T01:43:31.823Z,12.50
2023-03-15T01:46:09.386Z,6.93
2023-03-15T01:48:45.052Z,9.20
2023-03-15T01:51:22.670Z,11.63
2023-03-15T01:53:54.189Z,8.57
2023-03-15T01:56:24.394Z,8.70
2023-03-15T01:58:54.674Z,6.23
2023-03-15T02:01:23.242Z,5.50
2023-03-15T02:03:57.432Z,6.57
2023-03-15T02:06:34.839Z,8.50
2023-03-15T02:09:07.877Z,4.70
2023-03-15T02:11:39.353Z,5.50
2023-03-15T02:14:11.024Z,5.83
2023-03-15T02:16:41.302Z,9.07
2023-03-15T02:19:27.336Z,10.40
2023-03-15T02:22:02.409Z,9.60
2023-03-15T02:24:39.697Z,4.37
2023-03-15T02:27:08.107Z,5.67
2023-03-15T02:29:37.660Z,6.20
2023-03-15T02:32:06.078Z,7.07
2023-03-15T02:34:34.138Z,5.63
2023-03-15T02:37:04.251Z,3.33
2023-03-15T02:39:32.290Z,9.30
2023-03-15T02:42:01.852Z,5.87
2023-03-15T02:44:33.363Z,5.70
2023-03-15T02:47:08.214Z,5.27
2023-03-15T02:49:39.455Z,5.17
2023-03-15T02:52:09.968Z,4.37
2023-03-15T02:54:39.278Z,3.43
2023-03-15T02:57:09.665Z,3.90
2023-03-15T02:59:37.927Z,3.60
2023-03-15T03:02:07.867Z,4.83
2023-03-15T03:04:36.167Z,3.00
2023-03-15T03:07:04.519Z,3.40
2023-03-15T03:09:40.070Z,2.97
2023-03-15T03:12:09.088Z,3.07
2023-03-15T03:14:37.185Z,3.90
2023-03-15T03:17:10.703Z,2.63
2023-03-15T03:19:40.144Z,2.17
2023-03-15T03:22:08.431Z,5.77
2023-03-15T03:24:36.430Z,2.50
2023-03-15T03:27:04.878Z,3.10
2023-03-15T03:29:35.651Z,2.40
2023-03-15T03:32:06.562Z,3.30
2023-03-15T03:34:36.353Z,2.90
2023-03-15T03:37:04.632Z,2.67
2023-03-15T03:39:52.998Z,3.07
2023-03-15T03:42:21.020Z,4.23
2023-03-15T03:44:50.285Z,4.33
2023-03-15T03:47:19.538Z,4.40
2023-03-15T03:49:48.937Z,7.87
2023-03-15T03:52:17.226Z,6.50
2023-03-15T03:54:46.153Z,4.20
2023-03-15T03:57:14.164Z,6.57
2023-03-15T03:59:42.573Z,6.27
2023-03-15T04:02:11.871Z,7.07
2023-03-15T04:04:44.836Z,6.40
2023-03-15T04:07:19.917Z,5.33
2023-03-15T04:09:49.060Z,6.20
2023-03-15T04:12:17.430Z,8.53
2023-03-15T04:14:47.278Z,4.97
2023-03-15T04:17:19.271Z,5.73
2023-03-15T04:19:47.660Z,6.00
2023-03-15T04:22:21.125Z,7.30
2023-03-15T04:25:15.030Z,6.63
2023-03-15T04:27:58.476Z,6.47
2023-03-15T04:30:46.481Z,4.47
2023-03-15T04:33:37.908Z,4.30
2023-03-15T04:36:09.198Z,5.70
2023-03-15T04:39:07.265Z,8.20
2023-03-15T04:41:57.825Z,4.60
2023-03-15T04:44:48.736Z,4.70
2023-03-15T04:47:16.765Z,5.50
2023-03-15T04:50:08.971Z,7.53
2023-03-15T04:53:09.268Z,4.93
2023-03-15T04:56:04.314Z,5.67
2023-03-15T04:58:35.700Z,4.77
2023-03-15T05:01:30.097Z,7.23
2023-03-15T05:04:22.041Z,5.23
2023-03-15T05:06:57.516Z,5.00
2023-03-15T05:09:46.198Z,4.70
2023-03-15T05:12:28.094Z,4.00
2023-03-15T05:15:16.202Z,5.37
2023-03-15T05:18:09.861Z,6.97
2023-03-15T05:21:01.082Z,7.17
2023-03-15T05:23:52.392Z,5.33
2023-03-15T05:26:54.157Z,5.80
2023-03-15T05:29:43.804Z,7.83
2023-03-15T05:32:37.604Z,5.83
2023-03-15T05:35:33.421Z,7.37
2023-03-15T05:38:31.218Z,5.47
2023-03-15T05:41:18.537Z,7.67
2023-03-15T05:44:09.507Z,6.10
2023-03-15T05:46:57.299Z,10.27
2023-03-15T05:49:48.679Z,6.60
2023-03-15T05:52:42.870Z,6.20
2023-03-15T05:55:22.204Z,6.80
2023-03-15T05:58:10.534Z,7.37
2023-03-15T06:00:38.576Z,8.00
2023-03-15T06:03:18.625Z,8.07
2023-03-15T06:05:58.035Z,7.67
2023-03-15T06:08:35.458Z,10.50
2023-03-15T06:11:03.665Z,8.10
2023-03-15T06:13:33.182Z,8.90
2023-03-15T06:16:06.405Z,9.10
2023-03-15T06:18:38.543Z,11.73
2023-03-15T06:21:06.740Z,9.30
2023-03-15T06:23:34.783Z,8.80
2023-03-15T06:26:02.816Z,8.90
2023-03-15T06:28:32.151Z,10.20
2023-03-15T06:31:08.244Z,9.07
2023-03-15T06:33:42.448Z,9.90
2023-03-15T06:36:13.518Z,7.83
2023-03-15T06:38:41.978Z,10.47
2023-03-15T06:41:12.486Z,10.03
2023-03-15T06:43:41.068Z,16.30
2023-03-15T06:46:09.073Z,9.90
2023-03-15T06:48:42.780Z,9.50
2023-03-15T06:51:14.143Z,9.90
2023-03-15T06:53:42.815Z,9.97
2023-03-15T06:56:11.274Z,10.93
2023-03-15T06:58:39.377Z,9.97
2023-03-15T07:01:07.585Z,9.60
2023-03-15T07:03:35.754Z,12.40
2023-03-15T07:06:03.861Z,10.30
2023-03-15T07:08:33.415Z,10.93
2023-03-15T07:11:01.616Z,11.57
2023-03-15T07:13:29.689Z,9.97
2023-03-15T07:15:57.909Z,15.13
2023-03-15T07:18:26.043Z,12.67
2023-03-15T07:20:57.997Z,10.83
2023-03-15T07:23:26.404Z,12.20
2023-03-15T07:25:56.580Z,12.17
2023-03-15T07:28:25.612Z,11.90
2023-03-15T07:30:55.322Z,10.33
2023-03-15T07:33:24.167Z,10.80
2023-03-15T07:35:53.508Z,12.33
2023-03-15T07:38:22.466Z,11.53
2023-03-15T07:40:50.489Z,11.97
2023-03-15T07:43:20.341Z,12.93
2023-03-15T07:45:51.338Z,14.07
2023-03-15T07:48:19.375Z,13.57
2023-03-15T07:50:47.460Z,15.53
2023-03-15T07:53:15.787Z,16.43
2023-03-15T07:55:44.942Z,19.60
2023-03-15T07:58:12.998Z,14.90
2023-03-15T08:00:42.752Z,15.87
2023-03-15T08:03:10.994Z,14.83
2023-03-15T08:05:39.906Z,14.40
2023-03-15T08:08:08.464Z,14.70
2023-03-15T08:10:36.534Z,18.40
2023-03-15T08:13:04.581Z,15.20
2023-03-15T08:15:32.607Z,15.97
2023-03-15T08:18:02.067Z,13.23
2023-03-15T08:20:30.316Z,15.90
2023-03-15T08:22:58.435Z,13.93
2023-03-15T08:25:27.348Z,14.00
2023-03-15T08:27:55.389Z,17.90
2023-03-15T08:30:23.989Z,14.33
2023-03-15T08:32:52.796Z,13.10
2023-03-15T08:35:23.237Z,13.13
2023-03-15T08:37:52.507Z,13.87
2023-03-15T08:40:24.815Z,17.23
2023-03-15T08:42:53.370Z,15.53
2023-03-15T08:45:21.878Z,13.37
2023-03-15T08:47:49.924Z,19.50
2023-03-15T08:50:19.117Z,10.60
2023-03-15T08:52:48.470Z,13.67
2023-03-15T08:55:16.618Z,8.57
2023-03-15T08:57:44.793Z,11.70
2023-03-15T09:00:17.953Z,14.13
2023-03-15T09:02:48.592Z,13.40
2023-03-15T09:05:16.996Z,18.30
2023-03-15T09:07:45.714Z,13.93
2023-03-15T09:10:17.184Z,14.90
2023-03-15T09:12:46.769Z,8.70
2023-03-15T09:15:15.612Z,9.43
2023-03-15T09:17:44.306Z,11.33
2023-03-15T09:20:16.598Z,16.30
2023-03-15T09:22:50.288Z,11.80
2023-03-15T09:25:20.367Z,10.93
2023-03-15T09:27:48.458Z,9.63
